sensor_id;sensor_type;location;lat;lon;timestamp;P1;durP1;ratioP1;P2;durP2;ratioP2
29370;SDS011;16357;52.188;7.838;2023-04-03T00:00:47;4.22;;;1.70;;
29370;SDS011;16357;52.188;7.838;2023-04-03T00:03:16;6.93;;;1.90;;
29370;SDS011;16357;52.188;7.838;2023-04-03T00:05:43;4.75;;;2.00;;
29370;SDS011;16357;52.188;7.838;2023-04-03T00:08:09;6.50;;;2.20;;
29370;SDS011;16357;52.188;7.838;2023-04-03T00:10:36;4.97;;;1.92;;
29370;SDS011;16357;52.188;7.838;2023-04-03T00:13:04;4.60;;;1.60;;
29370;SDS011;16357;52.188;7.838;2023-04-03T00:15:32;4.70;;;2.20;;
29370;SDS011;16357;52.188;7.838;2023-04-03T00:17:59;2.97;;;1.58;;
29370;SDS011;16357;52.188;7.838;2023-04-03T00:20:26;3.17;;;1.48;;
29370;SDS011;16357;52.188;7.838;2023-04-03T00:22:53;3.95;;;2.15;;
29370;SDS011;16357;52.188;7.838;2023-04-03T00:25:20;3.22;;;1.63;;
29370;SDS011;16357;52.188;7.838;2023-04-03T00:27:47;9.50;;;2.35;;
29370;SDS011;16357;52.188;7.838;2023-04-03T00:30:14;7.75;;;1.75;;
29370;SDS011;16357;52.188;7.838;2023-04-03T00:32:42;6.28;;;2.20;;
29370;SDS011;16357;52.188;7.838;2023-04-03T00:35:08;5.28;;;1.88;;
29370;SDS011;16357;52.188;7.838;2023-04-03T00:37:35;3.42;;;1.73;;
29370;SDS011;16357;52.188;7.838;2023-04-03T00:40:02;4.05;;;1.60;;
29370;SDS011;16357;52.188;7.838;2023-04-03T00:42:29;4.63;;;1.90;;
29370;SDS011;16357;52.188;7.838;2023-04-03T00:47:22;4.05;;;1.67;;
29370;SDS011;16357;52.188;7.838;2023-04-03T00:49:50;3.97;;;1.55;;
29370;SDS011;16357;52.188;7.838;2023-04-03T00:52:19;5.53;;;2.15;;
29370;SDS011;16357;52.188;7.838;2023-04-03T00:54:49;5.03;;;1.60;;
29370;SDS011;16357;52.188;7.838;2023-04-03T00:57:17;6.22;;;1.92;;
29370;SDS011;16357;52.188;7.838;2023-04-03T00:59:50;6.00;;;1.67;;
29370;SDS011;16357;52.188;7.838;2023-04-03T01:02:21;3.65;;;1.88;;
29370;SDS011;16357;52.188;7.838;2023-04-03T01:04:47;6.50;;;2.08;;
29370;SDS011;16357;52.188;7.838;2023-04-03T01:07:21;5.70;;;1.85;;
29370;SDS011;16357;52.188;7.838;2023-04-03T01:09:51;5.80;;;1.80;;
29370;SDS011;16357;52.188;7.838;2023-04-03T01:12:35;7.30;;;1.58;;
29370;SDS011;16357;52.188;7.838;2023-04-03T01:15:07;3.22;;;1.40;;
29370;SDS011;16357;52.188;7.838;2023-04-03T01:25:37;2.88;;;1.40;;
29370;SDS011;16357;52.188;7.838;2023-04-03T01:28:10;4.63;;;2.08;;
29370;SDS011;16357;52.188;7.838;2023-04-03T01:30:42;6.20;;;2.00;;
29370;SDS011;16357;52.188;7.838;2023-04-03T01:33:26;4.43;;;1.70;;
29370;SDS011;16357;52.188;7.838;2023-04-03T01:35:52;7.70;;;2.50;;
29370;SDS011;16357;52.188;7.838;2023-04-03T01:38:19;7.72;;;2.97;;
29370;SDS011;16357;52.188;7.838;2023-04-03T01:40:45;4.20;;;2.20;;
29370;SDS011;16357;52.188;7.838;2023-04-03T01:43:12;6.15;;;2.20;;
29370;SDS011;16357;52.188;7.838;2023-04-03T01:45:38;4.07;;;1.83;;
29370;SDS011;16357;52.188;7.838;2023-04-03T01:48:04;3.55;;;1.60;;
29370;SDS011;16357;52.188;7.838;2023-04-03T01:50:31;4.32;;;1.45;;
29370;SDS011;16357;52.188;7.838;2023-04-03T01:52:57;4.45;;;1.90;;
29370;SDS011;16357;52.188;7.838;2023-04-03T01:55:24;4.13;;;1.70;;
29370;SDS011;16357;52.188;7.838;2023-04-03T01:57:50;5.60;;;1.63;;
29370;SDS011;16357;52.188;7.838;2023-04-03T02:00:17;3.17;;;1.42;;
29370;SDS011;16357;52.188;7.838;2023-04-03T02:02:43;4.93;;;1.50;;
29370;SDS011;16357;52.188;7.838;2023-04-03T02:05:10;4.63;;;1.60;;
29370;SDS011;16357;52.188;7.838;2023-04-03T02:07:36;4.93;;;1.88;;
29370;SDS011;16357;52.188;7.838;2023-04-03T02:10:02;5.70;;;1.98;;
29370;SDS011;16357;52.188;7.838;2023-04-03T02:12:29;6.00;;;2.10;;
29370;SDS011;16357;52.188;7.838;2023-04-03T02:14:55;3.78;;;1.45;;
29370;SDS011;16357;52.188;7.838;2023-04-03T02:17:22;2.15;;;1.60;;
29370;SDS011;16357;52.188;7.838;2023-04-03T02:19:48;5.80;;;1.60;;
29370;SDS011;16357;52.188;7.838;2023-04-03T02:22:15;3.60;;;1.50;;
29370;SDS011;16357;52.188;7.838;2023-04-03T02:24:41;2.88;;;1.75;;
29370;SDS011;16357;52.188;7.838;2023-04-03T02:27:07;5.22;;;1.85;;
29370;SDS011;16357;52.188;7.838;2023-04-03T02:29:34;4.63;;;1.90;;
29370;SDS011;16357;52.188;7.838;2023-04-03T02:32:00;4.55;;;1.77;;
29370;SDS011;16357;52.188;7.838;2023-04-03T02:34:27;6.63;;;2.00;;
29370;SDS011;16357;52.188;7.838;2023-04-03T02:36:53;4.30;;;1.70;;
29370;SDS011;16357;52.188;7.838;2023-04-03T02:39:20;5.95;;;1.88;;
29370;SDS011;16357;52.188;7.838;2023-04-03T02:41:46;5.07;;;1.95;;
29370;SDS011;16357;52.188;7.838;2023-04-03T02:44:13;3.88;;;1.65;;
29370;SDS011;16357;52.188;7.838;2023-04-03T02:46:39;3.03;;;1.50;;
29370;SDS011;16357;52.188;7.838;2023-04-03T02:49:06;5.43;;;1.70;;
29370;SDS011;16357;52.188;7.838;2023-04-03T02:51:32;3.92;;;1.50;;
29370;SDS011;16357;52.188;7.838;2023-04-03T02:53:59;3.92;;;1.60;;
29370;SDS011;16357;52.188;7.838;2023-04-03T02:56:25;5.07;;;1.88;;
29370;SDS011;16357;52.188;7.838;2023-04-03T02:58:52;7.55;;;1.63;;
29370;SDS011;16357;52.188;7.838;2023-04-03T03:01:19;4.50;;;1.90;;
29370;SDS011;16357;52.188;7.838;2023-04-03T03:03:45;5.25;;;2.00;;
29370;SDS011;16357;52.188;7.838;2023-04-03T03:06:13;5.05;;;1.70;;
29370;SDS011;16357;52.188;7.838;2023-04-03T03:08:41;4.65;;;2.05;;
29370;SDS011;16357;52.188;7.838;2023-04-03T03:11:08;5.63;;;1.40;;
29370;SDS011;16357;52.188;7.838;2023-04-03T03:13:35;6.97;;;1.98;;
29370;SDS011;16357;52.188;7.838;2023-04-03T03:16:02;6.47;;;2.00;;
29370;SDS011;16357;52.188;7.838;2023-04-03T03:18:29;6.40;;;1.90;;
29370;SDS011;16357;52.188;7.838;2023-04-03T03:20:57;4.43;;;1.90;;
29370;SDS011;16357;52.188;7.838;2023-04-03T03:23:25;3.85;;;1.60;;
29370;SDS011;16357;52.188;7.838;2023-04-03T03:25:56;5.68;;;1.90;;
29370;SDS011;16357;52.188;7.838;2023-04-03T03:28:27;6.22;;;1.65;;
29370;SDS011;16357;52.188;7.838;2023-04-03T03:30:54;4.55;;;1.90;;
29370;SDS011;16357;52.188;7.838;2023-04-03T03:33:20;5.78;;;1.88;;
29370;SDS011;16357;52.188;7.838;2023-04-03T03:35:47;5.38;;;1.52;;
29370;SDS011;16357;52.188;7.838;2023-04-03T03:38:13;5.45;;;1.98;;
29370;SDS011;16357;52.188;7.838;2023-04-03T03:40:39;5.65;;;1.63;;
29370;SDS011;16357;52.188;7.838;2023-04-03T03:43:06;5.25;;;1.90;;
29370;SDS011;16357;52.188;7.838;2023-04-03T03:45:33;5.18;;;1.85;;
29370;SDS011;16357;52.188;7.838;2023-04-03T03:48:00;4.65;;;1.70;;
29370;SDS011;16357;52.188;7.838;2023-04-03T03:50:28;3.92;;;1.77;;
29370;SDS011;16357;52.188;7.838;2023-04-03T03:52:54;6.22;;;1.80;;
29370;SDS011;16357;52.188;7.838;2023-04-03T03:55:20;3.17;;;1.73;;
29370;SDS011;16357;52.188;7.838;2023-04-03T03:57:47;5.00;;;2.00;;
29370;SDS011;16357;52.188;7.838;2023-04-03T04:00:13;8.70;;;1.80;;
29370;SDS011;16357;52.188;7.838;2023-04-03T04:02:40;5.90;;;2.00;;
29370;SDS011;16357;52.188;7.838;2023-04-03T04:05:07;4.82;;;1.90;;
29370;SDS011;16357;52.188;7.838;2023-04-03T04:07:33;8.70;;;2.20;;
29370;SDS011;16357;52.188;7.838;2023-04-03T04:09:59;6.05;;;2.25;;
29370;SDS011;16357;52.188;7.838;2023-04-03T04:12:26;3.75;;;1.77;;
29370;SDS011;16357;52.188;7.838;2023-04-03T04:14:53;3.47;;;1.67;;
29370;SDS011;16357;52.188;7.838;2023-04-03T04:17:19;5.57;;;2.00;;
29370;SDS011;16357;52.188;7.838;2023-04-03T04:19:45;4.15;;;1.85;;
29370;SDS011;16357;52.188;7.838;2023-04-03T04:22:12;5.78;;;1.70;;
29370;SDS011;16357;52.188;7.838;2023-04-03T04:24:38;5.68;;;1.85;;
29370;SDS011;16357;52.188;7.838;2023-04-03T04:27:05;4.82;;;1.83;;
29370;SDS011;16357;52.188;7.838;2023-04-03T04:29:31;5.72;;;1.85;;
29370;SDS011;16357;52.188;7.838;2023-04-03T04:32:02;6.85;;;1.90;;
29370;SDS011;16357;52.188;7.838;2023-04-03T04:34:31;5.75;;;1.73;;
29370;SDS011;16357;52.188;7.838;2023-04-03T04:36:57;7.18;;;2.08;;
29370;SDS011;16357;52.188;7.838;2023-04-03T04:39:24;4.28;;;1.65;;
29370;SDS011;16357;52.188;7.838;2023-04-03T04:41:50;6.20;;;1.98;;
29370;SDS011;16357;52.188;7.838;2023-04-03T04:44:17;5.10;;;1.60;;
29370;SDS011;16357;52.188;7.838;2023-04-03T04:46:46;5.28;;;2.10;;
29370;SDS011;16357;52.188;7.838;2023-04-03T04:49:13;8.77;;;2.10;;
29370;SDS011;16357;52.188;7.838;2023-04-03T04:51:39;5.70;;;2.20;;
29370;SDS011;16357;52.188;7.838;2023-04-03T04:54:17;5.25;;;1.70;;
29370;SDS011;16357;52.188;7.838;2023-04-03T04:56:43;6.45;;;1.85;;
29370;SDS011;16357;52.188;7.838;2023-04-03T04:59:09;5.40;;;1.83;;
29370;SDS011;16357;52.188;7.838;2023-04-03T05:01:36;8.45;;;2.08;;
29370;SDS011;16357;52.188;7.838;2023-04-03T05:04:02;6.55;;;1.90;;
29370;SDS011;16357;52.188;7.838;2023-04-03T05:06:29;5.20;;;2.00;;
29370;SDS011;16357;52.188;7.838;2023-04-03T05:08:57;4.35;;;2.00;;
29370;SDS011;16357;52.188;7.838;2023-04-03T05:11:24;5.03;;;1.88;;
29370;SDS011;16357;52.188;7.838;2023-04-03T05:13:51;3.90;;;1.70;;
29370;SDS011;16357;52.188;7.838;2023-04-03T05:16:17;6.00;;;1.88;;
29370;SDS011;16357;52.188;7.838;2023-04-03T05:18:44;4.22;;;1.98;;
29370;SDS011;16357;52.188;7.838;2023-04-03T05:21:11;5.45;;;1.88;;
29370;SDS011;16357;52.188;7.838;2023-04-03T05:23:37;10.38;;;2.70;;
29370;SDS011;16357;52.188;7.838;2023-04-03T05:26:03;7.20;;;2.25;;
29370;SDS011;16357;52.188;7.838;2023-04-03T05:28:30;5.43;;;2.05;;
29370;SDS011;16357;52.188;7.838;2023-04-03T05:30:56;5.57;;;1.92;;
29370;SDS011;16357;52.188;7.838;2023-04-03T05:33:25;9.00;;;2.13;;
29370;SDS011;16357;52.188;7.838;2023-04-03T05:35:52;7.38;;;2.20;;
29370;SDS011;16357;52.188;7.838;2023-04-03T05:38:20;7.75;;;2.20;;
29370;SDS011;16357;52.188;7.838;2023-04-03T05:40:46;6.13;;;3.03;;
29370;SDS011;16357;52.188;7.838;2023-04-03T05:43:13;7.90;;;3.42;;
29370;SDS011;16357;52.188;7.838;2023-04-03T05:45:39;8.60;;;3.30;;
29370;SDS011;16357;52.188;7.838;2023-04-03T05:48:05;8.52;;;2.85;;
29370;SDS011;16357;52.188;7.838;2023-04-03T05:50:32;5.90;;;2.30;;
29370;SDS011;16357;52.188;7.838;2023-04-03T05:52:58;6.93;;;3.03;;
29370;SDS011;16357;52.188;7.838;2023-04-03T05:55:27;7.28;;;2.95;;
29370;SDS011;16357;52.188;7.838;2023-04-03T05:57:53;8.15;;;2.90;;
29370;SDS011;16357;52.188;7.838;2023-04-03T06:00:20;11.90;;;3.25;;
29370;SDS011;16357;52.188;7.838;2023-04-03T06:02:47;10.32;;;3.55;;
29370;SDS011;16357;52.188;7.838;2023-04-03T06:05:13;9.02;;;3.08;;
29370;SDS011;16357;52.188;7.838;2023-04-03T06:07:40;7.00;;;2.90;;
29370;SDS011;16357;52.188;7.838;2023-04-03T06:10:07;6.95;;;3.10;;
29370;SDS011;16357;52.188;7.838;2023-04-03T06:12:35;5.05;;;2.45;;
29370;SDS011;16357;52.188;7.838;2023-04-03T06:15:01;9.57;;;2.70;;
29370;SDS011;16357;52.188;7.838;2023-04-03T06:17:28;7.78;;;2.60;;
29370;SDS011;16357;52.188;7.838;2023-04-03T06:19:55;7.85;;;3.47;;
29370;SDS011;16357;52.188;7.838;2023-04-03T06:22:24;8.55;;;3.40;;
29370;SDS011;16357;52.188;7.838;2023-04-03T06:24:51;8.10;;;3.17;;
29370;SDS011;16357;52.188;7.838;2023-04-03T06:27:18;7.25;;;3.10;;
29370;SDS011;16357;52.188;7.838;2023-04-03T06:29:44;6.93;;;2.92;;
29370;SDS011;16357;52.188;7.838;2023-04-03T06:32:11;7.57;;;2.38;;
29370;SDS011;16357;52.188;7.838;2023-04-03T06:34:37;7.45;;;2.78;;
29370;SDS011;16357;52.188;7.838;2023-04-03T06:37:04;5.15;;;2.47;;
29370;SDS011;16357;52.188;7.838;2023-04-03T06:39:30;5.20;;;2.22;;
29370;SDS011;16357;52.188;7.838;2023-04-03T06:41:57;7.30;;;2.80;;
29370;SDS011;16357;52.188;7.838;2023-04-03T06:44:23;6.30;;;2.40;;
29370;SDS011;16357;52.188;7.838;2023-04-03T06:46:50;4.78;;;2.13;;
29370;SDS011;16357;52.188;7.838;2023-04-03T06:49:17;9.68;;;2.10;;
29370;SDS011;16357;52.188;7.838;2023-04-03T06:51:44;8.65;;;2.40;;
29370;SDS011;16357;52.188;7.838;2023-04-03T06:54:10;12.07;;;2.40;;
29370;SDS011;16357;52.188;7.838;2023-04-03T06:56:37;5.32;;;2.03;;
29370;SDS011;16357;52.188;7.838;2023-04-03T06:59:03;8.25;;;2.35;;
29370;SDS011;16357;52.188;7.838;2023-04-03T07:01:30;6.82;;;2.75;;
29370;SDS011;16357;52.188;7.838;2023-04-03T07:03:57;5.25;;;1.77;;
29370;SDS011;16357;52.188;7.838;2023-04-03T07:06:23;5.88;;;2.00;;
29370;SDS011;16357;52.188;7.838;2023-04-03T07:08:53;5.80;;;2.10;;
29370;SDS011;16357;52.188;7.838;2023-04-03T07:11:20;8.38;;;2.17;;
29370;SDS011;16357;52.188;7.838;2023-04-03T07:13:46;3.70;;;1.95;;
29370;SDS011;16357;52.188;7.838;2023-04-03T07:16:13;4.47;;;1.92;;
29370;SDS011;16357;52.188;7.838;2023-04-03T07:18:39;11.45;;;2.33;;
29370;SDS011;16357;52.188;7.838;2023-04-03T07:21:06;6.15;;;1.80;;
29370;SDS011;16357;52.188;7.838;2023-04-03T07:23:32;4.80;;;1.95;;
29370;SDS011;16357;52.188;7.838;2023-04-03T07:25:59;5.97;;;2.13;;
29370;SDS011;16357;52.188;7.838;2023-04-03T07:28:26;4.65;;;1.77;;
29370;SDS011;16357;52.188;7.838;2023-04-03T07:31:00;5.60;;;2.28;;
29370;SDS011;16357;52.188;7.838;2023-04-03T07:38:21;4.35;;;2.10;;
29370;SDS011;16357;52.188;7.838;2023-04-03T07:40:47;3.78;;;1.90;;
29370;SDS011;16357;52.188;7.838;2023-04-03T07:43:15;3.55;;;1.60;;
29370;SDS011;16357;52.188;7.838;2023-04-03T07:45:42;4.80;;;1.50;;
29370;SDS011;16357;52.188;7.838;2023-04-03T07:48:10;5.03;;;1.90;;
29370;SDS011;16357;52.188;7.838;2023-04-03T07:50:37;7.93;;;2.00;;
29370;SDS011;16357;52.188;7.838;2023-04-03T07:53:06;3.83;;;1.60;;
29370;SDS011;16357;52.188;7.838;2023-04-03T07:55:34;2.78;;;1.75;;
29370;SDS011;16357;52.188;7.838;2023-04-03T07:58:03;4.75;;;1.70;;
29370;SDS011;16357;52.188;7.838;2023-04-03T08:00:31;3.80;;;1.50;;
29370;SDS011;16357;52.188;7.838;2023-04-03T08:02:57;4.93;;;1.67;;
29370;SDS011;16357;52.188;7.838;2023-04-03T08:05:24;5.53;;;1.25;;
29370;SDS011;16357;52.188;7.838;2023-04-03T08:07:51;3.75;;;1.50;;
29370;SDS011;16357;52.188;7.838;2023-04-03T08:10:18;2.78;;;1.30;;
29370;SDS011;16357;52.188;7.838;2023-04-03T08:12:45;2.10;;;1.30;;
29370;SDS011;16357;52.188;7.838;2023-04-03T08:15:13;2.45;;;1.48;;
29370;SDS011;16357;52.188;7.838;2023-04-03T08:17:40;4.15;;;1.30;;
29370;SDS011;16357;52.188;7.838;2023-04-03T08:20:06;3.15;;;1.33;;
29370;SDS011;16357;52.188;7.838;2023-04-03T08:22:34;3.42;;;1.50;;
29370;SDS011;16357;52.188;7.838;2023-04-03T08:25:00;3.72;;;1.30;;
29370;SDS011;16357;52.188;7.838;2023-04-03T08:27:27;4.82;;;1.40;;
29370;SDS011;16357;52.188;7.838;2023-04-03T08:29:55;2.83;;;1.27;;
29370;SDS011;16357;52.188;7.838;2023-04-03T08:32:23;6.20;;;1.20;;
29370;SDS011;16357;52.188;7.838;2023-04-03T08:34:50;2.33;;;1.17;;
29370;SDS011;16357;52.188;7.838;2023-04-03T08:37:16;4.25;;;1.38;;
29370;SDS011;16357;52.188;7.838;2023-04-03T08:39:43;3.58;;;1.60;;
29370;SDS011;16357;52.188;7.838;2023-04-03T08:42:32;2.10;;;1.20;;
29370;SDS011;16357;52.188;7.838;2023-04-03T08:45:12;2.03;;;1.15;;
29370;SDS011;16357;52.188;7.838;2023-04-03T08:47:47;2.42;;;1.17;;
29370;SDS011;16357;52.188;7.838;2023-04-03T08:50:23;2.40;;;1.05;;
29370;SDS011;16357;52.188;7.838;2023-04-03T08:52:58;2.58;;;1.20;;
29370;SDS011;16357;52.188;7.838;2023-04-03T08:55:28;4.65;;;1.42;;
29370;SDS011;16357;52.188;7.838;2023-04-03T08:58:09;2.80;;;1.20;;
29370;SDS011;16357;52.188;7.838;2023-04-03T09:03:23;1.20;;;1.00;;
29370;SDS011;16357;52.188;7.838;2023-04-03T09:08:40;2.75;;;1.50;;
29370;SDS011;16357;52.188;7.838;2023-04-03T09:11:16;3.85;;;1.50;;
29370;SDS011;16357;52.188;7.838;2023-04-03T09:14:16;3.53;;;1.30;;
29370;SDS011;16357;52.188;7.838;2023-04-03T09:16:53;2.30;;;1.25;;
29370;SDS011;16357;52.188;7.838;2023-04-03T09:21:57;3.85;;;1.30;;
29370;SDS011;16357;52.188;7.838;2023-04-03T09:24:27;2.63;;;1.45;;
29370;SDS011;16357;52.188;7.838;2023-04-03T09:29:50;3.70;;;1.42;;
29370;SDS011;16357;52.188;7.838;2023-04-03T09:32:27;3.63;;;1.33;;
29370;SDS011;16357;52.188;7.838;2023-04-03T09:34:57;3.78;;;1.77;;
29370;SDS011;16357;52.188;7.838;2023-04-03T09:42:58;5.43;;;1.70;;
29370;SDS011;16357;52.188;7.838;2023-04-03T09:45:28;3.22;;;1.52;;
29370;SDS011;16357;52.188;7.838;2023-04-03T09:48:07;2.60;;;1.02;;
29370;SDS011;16357;52.188;7.838;2023-04-03T09:53:35;2.70;;;1.20;;
29370;SDS011;16357;52.188;7.838;2023-04-03T09:58:43;3.22;;;1.30;;
29370;SDS011;16357;52.188;7.838;2023-04-03T10:04:04;3.90;;;1.42;;
29370;SDS011;16357;52.188;7.838;2023-04-03T10:06:42;3.53;;;1.38;;
29370;SDS011;16357;52.188;7.838;2023-04-03T10:09:18;3.08;;;1.50;;
29370;SDS011;16357;52.188;7.838;2023-04-03T10:12:05;2.22;;;1.05;;
29370;SDS011;16357;52.188;7.838;2023-04-03T10:14:33;4.40;;;1.63;;
29370;SDS011;16357;52.188;7.838;2023-04-03T10:19:48;10.32;;;1.60;;
29370;SDS011;16357;52.188;7.838;2023-04-03T10:27:56;2.67;;;1.40;;
29370;SDS011;16357;52.188;7.838;2023-04-03T10:30:48;2.17;;;1.27;;
29370;SDS011;16357;52.188;7.838;2023-04-03T10:41:45;4.15;;;1.55;;
29370;SDS011;16357;52.188;7.838;2023-04-03T10:57:53;2.05;;;1.20;;
29370;SDS011;16357;52.188;7.838;2023-04-03T11:00:25;5.25;;;1.63;;
29370;SDS011;16357;52.188;7.838;2023-04-03T11:03:00;1.90;;;1.15;;
29370;SDS011;16357;52.188;7.838;2023-04-03T11:05:45;2.95;;;1.25;;
29370;SDS011;16357;52.188;7.838;2023-04-03T11:11:24;2.30;;;1.05;;
29370;SDS011;16357;52.188;7.838;2023-04-03T11:14:09;2.38;;;1.20;;
29370;SDS011;16357;52.188;7.838;2023-04-03T11:16:46;3.33;;;1.40;;
29370;SDS011;16357;52.188;7.838;2023-04-03T11:19:20;5.70;;;1.52;;
29370;SDS011;16357;52.188;7.838;2023-04-03T11:22:13;5.57;;;1.67;;
29370;SDS011;16357;52.188;7.838;2023-04-03T11:24:52;5.63;;;1.50;;
29370;SDS011;16357;52.188;7.838;2023-04-03T11:27:25;3.13;;;1.80;;
29370;SDS011;16357;52.188;7.838;2023-04-03T11:29:57;4.13;;;1.50;;
29370;SDS011;16357;52.188;7.838;2023-04-03T11:34:54;2.72;;;1.45;;
29370;SDS011;16357;52.188;7.838;2023-04-03T11:40:00;3.75;;;1.38;;
29370;SDS011;16357;52.188;7.838;2023-04-03T11:45:17;4.55;;;1.45;;
29370;SDS011;16357;52.188;7.838;2023-04-03T11:50:38;3.33;;;1.40;;
29370;SDS011;16357;52.188;7.838;2023-04-03T11:58:03;2.63;;;1.48;;
29370;SDS011;16357;52.188;7.838;2023-04-03T12:16:02;3.33;;;1.40;;
29370;SDS011;16357;52.188;7.838;2023-04-03T12:21:08;3.22;;;1.50;;
29370;SDS011;16357;52.188;7.838;2023-04-03T12:23:36;2.58;;;1.40;;
29370;SDS011;16357;52.188;7.838;2023-04-03T12:26:22;4.15;;;1.10;;
29370;SDS011;16357;52.188;7.838;2023-04-03T12:29:10;3.65;;;1.00;;
29370;SDS011;16357;52.188;7.838;2023-04-03T12:37:21;3.15;;;1.30;;
29370;SDS011;16357;52.188;7.838;2023-04-03T12:48:17;4.30;;;1.60;;
29370;SDS011;16357;52.188;7.838;2023-04-03T12:50:48;4.18;;;1.42;;
29370;SDS011;16357;52.188;7.838;2023-04-03T12:53:19;4.05;;;1.25;;
29370;SDS011;16357;52.188;7.838;2023-04-03T12:55:56;3.85;;;1.20;;
29370;SDS011;16357;52.188;7.838;2023-04-03T12:58:24;3.80;;;1.50;;
29370;SDS011;16357;52.188;7.838;2023-04-03T13:03:42;4.50;;;1.40;;
29370;SDS011;16357;52.188;7.838;2023-04-03T13:06:14;1.88;;;1.00;;
29370;SDS011;16357;52.188;7.838;2023-04-03T13:08:51;2.75;;;1.27;;
29370;SDS011;16357;52.188;7.838;2023-04-03T13:11:30;2.70;;;1.40;;
29370;SDS011;16357;52.188;7.838;2023-04-03T13:14:03;4.28;;;1.40;;
29370;SDS011;16357;52.188;7.838;2023-04-03T13:16:33;2.70;;;1.30;;
29370;SDS011;16357;52.188;7.838;2023-04-03T13:19:00;2.63;;;1.40;;
29370;SDS011;16357;52.188;7.838;2023-04-03T13:21:30;2.45;;;1.17;;
29370;SDS011;16357;52.188;7.838;2023-04-03T13:24:00;4.00;;;1.17;;
29370;SDS011;16357;52.188;7.838;2023-04-03T13:26:41;2.72;;;1.13;;
29370;SDS011;16357;52.188;7.838;2023-04-03T13:29:17;2.95;;;1.38;;
29370;SDS011;16357;52.188;7.838;2023-04-03T13:31:56;2.03;;;1.13;;
29370;SDS011;16357;52.188;7.838;2023-04-03T13:34:25;3.63;;;1.00;;
29370;SDS011;16357;52.188;7.838;2023-04-03T13:39:22;5.10;;;1.52;;
29370;SDS011;16357;52.188;7.838;2023-04-03T13:41:58;2.55;;;1.27;;
29370;SDS011;16357;52.188;7.838;2023-04-03T13:44:29;4.50;;;1.20;;
29370;SDS011;16357;52.188;7.838;2023-04-03T13:47:01;3.42;;;1.13;;
29370;SDS011;16357;52.188;7.838;2023-04-03T13:49:44;4.28;;;1.42;;
29370;SDS011;16357;52.188;7.838;2023-04-03T13:52:34;4.38;;;1.35;;
29370;SDS011;16357;52.188;7.838;2023-04-03T13:55:22;3.35;;;1.25;;
29370;SDS011;16357;52.188;7.838;2023-04-03T13:57:57;2.78;;;1.20;;
29370;SDS011;16357;52.188;7.838;2023-04-03T14:05:55;2.53;;;1.30;;
29370;SDS011;16357;52.188;7.838;2023-04-03T14:08:22;4.60;;;1.60;;
29370;SDS011;16357;52.188;7.838;2023-04-03T14:11:01;2.58;;;1.35;;
29370;SDS011;16357;52.188;7.838;2023-04-03T14:13:31;2.30;;;1.17;;
29370;SDS011;16357;52.188;7.838;2023-04-03T14:15:58;3.05;;;1.20;;
29370;SDS011;16357;52.188;7.838;2023-04-03T14:18:40;4.85;;;1.40;;
29370;SDS011;16357;52.188;7.838;2023-04-03T14:21:07;3.95;;;1.20;;
29370;SDS011;16357;52.188;7.838;2023-04-03T14:23:33;2.78;;;1.50;;
29370;SDS011;16357;52.188;7.838;2023-04-03T14:26:00;2.75;;;1.17;;
29370;SDS011;16357;52.188;7.838;2023-04-03T14:28:28;2.45;;;1.08;;
29370;SDS011;16357;52.188;7.838;2023-04-03T14:30:54;3.22;;;1.50;;
29370;SDS011;16357;52.188;7.838;2023-04-03T14:33:21;2.00;;;1.00;;
29370;SDS011;16357;52.188;7.838;2023-04-03T14:35:48;4.18;;;1.27;;
29370;SDS011;16357;52.188;7.838;2023-04-03T14:38:26;3.28;;;1.23;;
29370;SDS011;16357;52.188;7.838;2023-04-03T14:40:54;2.85;;;1.10;;
29370;SDS011;16357;52.188;7.838;2023-04-03T14:43:31;4.60;;;1.30;;
29370;SDS011;16357;52.188;7.838;2023-04-03T14:45:58;2.58;;;1.40;;
29370;SDS011;16357;52.188;7.838;2023-04-03T14:48:25;2.00;;;1.20;;
29370;SDS011;16357;52.188;7.838;2023-04-03T14:50:53;2.83;;;1.30;;
29370;SDS011;16357;52.188;7.838;2023-04-03T14:53:31;1.67;;;1.10;;
29370;SDS011;16357;52.188;7.838;2023-04-03T14:59:00;3.25;;;1.20;;
29370;SDS011;16357;52.188;7.838;2023-04-03T15:01:29;3.05;;;1.27;;
29370;SDS011;16357;52.188;7.838;2023-04-03T15:03:56;2.95;;;1.10;;
29370;SDS011;16357;52.188;7.838;2023-04-03T15:06:23;3.83;;;1.45;;
29370;SDS011;16357;52.188;7.838;2023-04-03T15:08:50;2.80;;;1.38;;
29370;SDS011;16357;52.188;7.838;2023-04-03T15:11:17;2.03;;;1.38;;
29370;SDS011;16357;52.188;7.838;2023-04-03T15:13:43;2.80;;;1.48;;
29370;SDS011;16357;52.188;7.838;2023-04-03T15:16:17;2.85;;;1.23;;
29370;SDS011;16357;52.188;7.838;2023-04-03T15:18:45;3.00;;;1.23;;
29370;SDS011;16357;52.188;7.838;2023-04-03T15:21:13;4.45;;;1.15;;
29370;SDS011;16357;52.188;7.838;2023-04-03T15:23:40;3.90;;;1.45;;
29370;SDS011;16357;52.188;7.838;2023-04-03T15:26:06;2.97;;;1.20;;
29370;SDS011;16357;52.188;7.838;2023-04-03T15:28:34;4.57;;;1.30;;
29370;SDS011;16357;52.188;7.838;2023-04-03T15:31:03;2.55;;;1.17;;
29370;SDS011;16357;52.188;7.838;2023-04-03T15:33:31;2.35;;;1.08;;
29370;SDS011;16357;52.188;7.838;2023-04-03T15:35:59;3.20;;;1.23;;
29370;SDS011;16357;52.188;7.838;2023-04-03T15:38:37;3.50;;;1.40;;
29370;SDS011;16357;52.188;7.838;2023-04-03T15:41:04;3.67;;;1.35;;
29370;SDS011;16357;52.188;7.838;2023-04-03T15:43:31;3.35;;;1.40;;
29370;SDS011;16357;52.188;7.838;2023-04-03T15:45:59;1.77;;;1.15;;
29370;SDS011;16357;52.188;7.838;2023-04-03T15:48:27;2.58;;;1.42;;
29370;SDS011;16357;52.188;7.838;2023-04-03T15:50:54;2.00;;;1.17;;
29370;SDS011;16357;52.188;7.838;2023-04-03T15:53:23;4.93;;;1.20;;
29370;SDS011;16357;52.188;7.838;2023-04-03T15:55:50;2.88;;;1.45;;
29370;SDS011;16357;52.188;7.838;2023-04-03T15:58:16;2.70;;;1.23;;
29370;SDS011;16357;52.188;7.838;2023-04-03T16:00:43;3.47;;;1.63;;
29370;SDS011;16357;52.188;7.838;2023-04-03T16:03:10;3.45;;;1.40;;
29370;SDS011;16357;52.188;7.838;2023-04-03T16:05:41;2.50;;;1.35;;
29370;SDS011;16357;52.188;7.838;2023-04-03T16:08:08;2.92;;;1.60;;
29370;SDS011;16357;52.188;7.838;2023-04-03T16:10:35;3.20;;;1.40;;
29370;SDS011;16357;52.188;7.838;2023-04-03T16:13:03;4.07;;;1.52;;
29370;SDS011;16357;52.188;7.838;2023-04-03T16:15:30;3.13;;;1.20;;
29370;SDS011;16357;52.188;7.838;2023-04-03T16:17:59;2.30;;;1.25;;
29370;SDS011;16357;52.188;7.838;2023-04-03T16:20:25;3.42;;;1.30;;
29370;SDS011;16357;52.188;7.838;2023-04-03T16:22:53;2.28;;;1.40;;
29370;SDS011;16357;52.188;7.838;2023-04-03T16:25:22;2.33;;;1.13;;
29370;SDS011;16357;52.188;7.838;2023-04-03T16:27:48;2.63;;;1.25;;
29370;SDS011;16357;52.188;7.838;2023-04-03T16:30:15;4.20;;;1.50;;
29370;SDS011;16357;52.188;7.838;2023-04-03T16:32:41;1.80;;;1.00;;
29370;SDS011;16357;52.188;7.838;2023-04-03T16:35:09;3.83;;;1.50;;
29370;SDS011;16357;52.188;7.838;2023-04-03T16:37:37;2.88;;;1.30;;
29370;SDS011;16357;52.188;7.838;2023-04-03T16:40:05;5.22;;;1.50;;
29370;SDS011;16357;52.188;7.838;2023-04-03T16:42:33;2.97;;;1.27;;
29370;SDS011;16357;52.188;7.838;2023-04-03T16:45:03;2.22;;;1.30;;
29370;SDS011;16357;52.188;7.838;2023-04-03T16:47:32;1.98;;;1.10;;
29370;SDS011;16357;52.188;7.838;2023-04-03T16:49:58;3.53;;;1.45;;
29370;SDS011;16357;52.188;7.838;2023-04-03T16:52:25;4.13;;;1.20;;
29370;SDS011;16357;52.188;7.838;2023-04-03T16:54:52;3.15;;;1.38;;
29370;SDS011;16357;52.188;7.838;2023-04-03T16:57:22;2.38;;;1.30;;
29370;SDS011;16357;52.188;7.838;2023-04-03T16:59:50;2.75;;;1.30;;
29370;SDS011;16357;52.188;7.838;2023-04-03T17:02:17;3.42;;;1.20;;
29370;SDS011;16357;52.188;7.838;2023-04-03T17:04:45;3.83;;;1.60;;
29370;SDS011;16357;52.188;7.838;2023-04-03T17:07:12;2.95;;;1.40;;
29370;SDS011;16357;52.188;7.838;2023-04-03T17:09:38;2.40;;;1.40;;
29370;SDS011;16357;52.188;7.838;2023-04-03T17:12:05;3.33;;;1.27;;
29370;SDS011;16357;52.188;7.838;2023-04-03T17:14:31;2.60;;;1.15;;